createdAt,value
2023-03-11T00:00:47.120Z,9.33
2023-03-11T00:03:16.529Z,9.24
2023-03-11T00:05:46.480Z,9.23
2023-03-11T00:08:17.892Z,9.13
2023-03-11T00:10:48.209Z,9.04
2023-03-11T00:13:17.341Z,9.03
2023-03-11T00:15:49.450Z,8.88
2023-03-11T00:18:17.655Z,8.89
2023-03-11T00:20:47.478Z,8.69
2023-03-11T00:23:16.107Z,8.65
2023-03-11T00:25:46.165Z,8.72
2023-03-11T00:28:14.743Z,8.60
2023-03-11T00:30:43.920Z,8.62
2023-03-11T00:33:15.196Z,8.55
2023-03-11T00:35:43.929Z,8.53
2023-03-11T00:38:16.142Z,8.46
2023-03-11T00:40:45.312Z,8.36
2023-03-11T00:43:13.492Z,8.41
2023-03-11T00:45:41.073Z,8.34
2023-03-11T00:48:15.165Z,8.35
2023-03-11T00:50:42.739Z,8.40
2023-03-11T00:53:12.430Z,8.41
2023-03-11T00:55:40.113Z,8.36
2023-03-11T00:58:10.960Z,8.34
2023-03-11T01:00:38.365Z,8.37
2023-03-11T01:03:05.719Z,8.29
2023-03-11T01:05:34.910Z,8.30
2023-03-11T01:08:04.690Z,8.20
2023-03-11T01:10:33.759Z,8.28
2023-03-11T01:13:01.995Z,8.20
2023-03-11T01:15:32.494Z,8.21
2023-03-11T01:18:00.629Z,8.17
2023-03-11T01:20:29.505Z,8.00
2023-03-11T01:22:56.829Z,7.94
2023-03-11T01:25:25.233Z,7.99
2023-03-11T01:27:52.785Z,8.01
2023-03-11T01:30:23.438Z,7.98
2023-03-11T01:32:52.875Z,7.99
2023-03-11T01:35:22.595Z,7.95
2023-03-11T01:37:49.863Z,7.85
2023-03-11T01:40:25.815Z,7.74
2023-03-11T01:42:53.484Z,7.63
2023-03-11T01:45:33.488Z,7.58
2023-03-11T01:48:00.851Z,7.50
2023-03-11T01:50:35.144Z,7.39
2023-03-11T01:53:04.882Z,7.22
2023-03-11T01:55:32.899Z,7.13
2023-03-11T01:58:05.466Z,7.00
2023-03-11T02:00:32.670Z,6.95
2023-03-11T02:03:02.761Z,6.91
2023-03-11T02:05:30.234Z,6.97
2023-03-11T02:08:06.980Z,7.06
2023-03-11T02:10:34.448Z,6.95
2023-03-11T02:13:04.217Z,6.97
2023-03-11T02:15:31.866Z,6.86
2023-03-11T02:18:05.511Z,6.91
2023-03-11T02:20:52.162Z,6.88
2023-03-11T02:23:24.099Z,6.83
2023-03-11T02:26:06.572Z,6.81
2023-03-11T02:28:37.001Z,6.90
2023-03-11T02:31:13.697Z,6.79
2023-03-11T02:33:44.335Z,6.75
2023-03-11T02:36:32.711Z,6.64
2023-03-11T02:38:59.815Z,6.58
2023-03-11T02:41:28.275Z,6.42
2023-03-11T02:43:56.416Z,6.47
2023-03-11T02:46:23.863Z,6.48
2023-03-11T02:48:53.714Z,6.37
2023-03-11T02:51:21.321Z,6.35
2023-03-11T02:53:52.171Z,6.28
2023-03-11T02:56:19.733Z,6.21
2023-03-11T02:58:47.281Z,6.28
2023-03-11T03:01:14.766Z,6.18
2023-03-11T03:03:41.894Z,6.08
2023-03-11T03:06:09.970Z,6.04
2023-03-11T03:08:37.509Z,5.98
2023-03-11T03:11:06.050Z,5.88
2023-03-11T03:13:33.626Z,5.85
2023-03-11T03:16:07.045Z,5.57
2023-03-11T03:18:34.575Z,5.45
2023-03-11T03:21:03.004Z,5.46
2023-03-11T03:23:35.413Z,5.41
2023-03-11T03:26:02.959Z,5.31
2023-03-11T03:28:30.512Z,5.28
2023-03-11T03:31:04.388Z,5.15
2023-03-11T03:33:32.860Z,5.00
2023-03-11T03:35:59.934Z,5.01
2023-03-11T03:38:27.445Z,4.93
2023-03-11T03:40:54.790Z,4.89
2023-03-11T03:43:22.482Z,4.74
2023-03-11T03:46:01.361Z,4.66
2023-03-11T03:48:29.792Z,4.74
2023-03-11T03:51:05.215Z,4.61
2023-03-11T03:53:34.767Z,4.62
2023-03-11T03:56:06.877Z,4.41
2023-03-11T03:58:34.417Z,4.52
2023-03-11T04:01:06.955Z,4.42
2023-03-11T04:03:35.545Z,4.35
2023-03-11T04:06:11.560Z,4.16
2023-03-11T04:08:40.760Z,4.00
2023-03-11T04:11:07.847Z,3.91
2023-03-11T04:13:35.362Z,3.79
2023-03-11T04:16:08.187Z,3.46
2023-03-11T04:18:41.475Z,3.31
2023-03-11T04:21:08.914Z,3.14
2023-03-11T04:23:36.302Z,3.11
2023-03-11T04:26:06.465Z,2.92
2023-03-11T04:28:35.961Z,2.87
2023-03-11T04:31:03.582Z,2.87
2023-03-11T04:33:37.012Z,2.83
2023-03-11T04:36:08.781Z,2.75
2023-03-11T04:38:36.733Z,2.61
2023-03-11T04:41:05.962Z,2.48
2023-03-11T04:43:34.432Z,2.30
2023-03-11T04:46:02.047Z,2.30
2023-03-11T04:48:29.339Z,2.25
2023-03-11T04:50:57.992Z,2.07
2023-03-11T04:53:25.361Z,2.07
2023-03-11T04:55:54.074Z,1.96
2023-03-11T04:58:22.291Z,1.84
2023-03-11T05:00:49.841Z,1.76
2023-03-11T05:03:16.836Z,1.69
2023-03-11T05:05:45.733Z,1.66
2023-03-11T05:08:14.250Z,1.58
2023-03-11T05:10:43.135Z,1.53
2023-03-11T05:13:10.744Z,1.51
2023-03-11T05:15:39.380Z,1.39
2023-03-11T05:18:06.635Z,1.37
2023-03-11T05:20:35.130Z,1.48
2023-03-11T05:23:03.922Z,1.38
2023-03-11T05:25:31.786Z,1.47
2023-03-11T05:28:06.262Z,1.51
2023-03-11T05:30:33.821Z,1.51
2023-03-11T05:33:01.152Z,1.57
2023-03-11T05:35:28.878Z,1.55
2023-03-11T05:37:57.140Z,1.53
2023-03-11T05:40:24.701Z,1.60
2023-03-11T05:42:52.207Z,1.62
2023-03-11T05:45:19.656Z,1.66
2023-03-11T05:47:47.032Z,1.69
2023-03-11T05:50:14.465Z,1.71
2023-03-11T05:52:41.555Z,1.74
2023-03-11T05:55:17.980Z,1.70
2023-03-11T05:57:45.196Z,1.76
2023-03-11T06:00:20.838Z,1.76
2023-03-11T06:02:48.417Z,1.77
2023-03-11T06:05:16.078Z,1.80
2023-03-11T06:07:43.776Z,1.77
2023-03-11T06:10:11.949Z,1.74
2023-03-11T06:12:39.771Z,1.73
2023-03-11T06:15:09.816Z,1.68
2023-03-11T06:17:38.254Z,1.65
2023-03-11T06:20:06.409Z,1.61
2023-03-11T06:22:33.674Z,1.62
2023-03-11T06:25:01.109Z,1.61
2023-03-11T06:27:28.558Z,1.61
2023-03-11T06:29:55.995Z,1.51
2023-03-11T06:32:24.647Z,1.45
2023-03-11T06:34:53.264Z,1.43
2023-03-11T06:37:21.914Z,1.37
2023-03-11T06:39:53.452Z,1.35
2023-03-11T06:42:24.093Z,1.24
2023-03-11T06:44:51.463Z,1.19
2023-03-11T06:47:19.551Z,1.11
2023-03-11T06:49:46.995Z,1.17
2023-03-11T06:52:14.204Z,1.09
2023-03-11T06:54:41.723Z,1.00
2023-03-11T06:57:10.253Z,1.08
2023-03-11T06:59:39.543Z,0.95
2023-03-11T07:02:08.383Z,1.02
2023-03-11T07:04:36.637Z,1.03
2023-03-11T07:07:04.074Z,0.94
2023-03-11T07:09:33.749Z,0.82
2023-03-11T07:12:01.976Z,0.71
2023-03-11T07:14:29.074Z,0.85
2023-03-11T07:16:56.670Z,0.94
2023-03-11T07:19:24.242Z,0.69
2023-03-11T07:21:52.469Z,0.69
2023-03-11T07:24:19.964Z,0.58
2023-03-11T07:26:48.491Z,0.57
2023-03-11T07:29:15.892Z,0.59
2023-03-11T07:31:43.511Z,0.61
2023-03-11T07:34:12.860Z,0.50
2023-03-11T07:36:42.601Z,0.49
2023-03-11T07:39:14.885Z,0.47
2023-03-11T07:41:43.117Z,0.37
2023-03-11T07:44:13.623Z,0.32
2023-03-11T07:46:41.392Z,0.34
2023-03-11T07:49:09.110Z,0.31
2023-03-11T07:51:38.229Z,0.29
2023-03-11T07:54:06.245Z,0.21
2023-03-11T07:56:35.100Z,0.15
2023-03-11T07:59:05.574Z,0.17
2023-03-11T08:01:37.091Z,0.16
2023-03-11T08:04:07.184Z,0.28
2023-03-11T08:06:37.309Z,0.37
2023-03-11T08:09:09.387Z,0.29
2023-03-11T08:11:37.304Z,0.37
2023-03-11T08:14:05.277Z,0.44
2023-03-11T08:16:32.429Z,0.34
2023-03-11T08:19:01.010Z,0.45
2023-03-11T08:21:32.393Z,0.29
2023-03-11T08:24:01.659Z,0.42
2023-03-11T08:26:36.551Z,0.37
2023-03-11T08:29:04.376Z,0.40
2023-03-11T08:31:33.951Z,0.40
2023-03-11T08:34:04.281Z,0.51
2023-03-11T08:36:33.018Z,0.40
2023-03-11T08:39:00.281Z,0.35
2023-03-11T08:41:28.974Z,0.53
2023-03-11T08:43:58.138Z,0.57
2023-03-11T08:46:32.806Z,0.57
2023-03-11T08:49:02.540Z,0.48
2023-03-11T08:51:31.585Z,0.53
2023-03-11T08:53:59.698Z,0.54
2023-03-11T08:56:27.691Z,0.53
2023-03-11T08:58:55.497Z,0.53
2023-03-11T09:01:23.933Z,0.56
2023-03-11T09:03:51.170Z,0.53
2023-03-11T09:06:20.962Z,0.55
2023-03-11T09:08:49.255Z,0.51
2023-03-11T09:11:17.500Z,0.55
2023-03-11T09:13:45.204Z,0.59
2023-03-11T09:16:17.103Z,0.62
2023-03-11T09:18:44.292Z,0.60
2023-03-11T09:21:12.113Z,0.60
2023-03-11T09:23:41.116Z,0.60
2023-03-11T09:26:10.338Z,0.71
2023-03-11T09:28:37.835Z,0.61
2023-03-11T09:31:05.518Z,0.64
2023-03-11T09:33:36.244Z,0.60
2023-03-11T09:36:03.489Z,0.62
2023-03-11T09:38:31.187Z,0.59
2023-03-11T09:41:16.247Z,0.66
2023-03-11T09:44:33.228Z,0.62
2023-03-11T09:47:14.738Z,0.66
2023-03-11T09:50:05.112Z,0.64
2023-03-11T09:52:56.166Z,0.65
2023-03-11T09:55:27.318Z,0.60
2023-03-11T09:57:57.072Z,0.57
2023-03-11T10:00:25.471Z,0.59
2023-03-11T10:02:53.898Z,0.61
2023-03-11T10:05:27.743Z,0.57
2023-03-11T10:08:16.275Z,0.61
2023-03-11T10:11:04.136Z,0.58
2023-03-11T10:13:55.570Z,0.60
2023-03-11T10:16:43.776Z,0.60
2023-03-11T10:19:21.649Z,0.58
2023-03-11T10:22:30.630Z,0.60
2023-03-11T10:25:10.531Z,0.59
2023-03-11T10:27:52.490Z,0.68
2023-03-11T10:30:32.025Z,0.65
2023-03-11T10:33:04.990Z,0.64
2023-03-11T10:35:40.028Z,0.68
2023-03-11T10:38:24.572Z,0.79
2023-03-11T10:40:55.537Z,0.86
2023-03-11T10:43:32.064Z,0.92
2023-03-11T10:45:59.836Z,0.92
2023-03-11T10:48:28.597Z,0.94
2023-03-11T10:50:59.107Z,1.01
2023-03-11T10:53:26.239Z,1.03
2023-03-11T10:55:56.483Z,1.01
2023-03-11T10:58:27.302Z,1.03
2023-03-11T11:01:03.965Z,1.07
2023-03-11T11:03:31.664Z,1.07
2023-03-11T11:06:07.561Z,1.05
2023-03-11T11:08:35.327Z,1.12
2023-03-11T11:11:04.948Z,1.09
2023-03-11T11:13:35.024Z,1.11
2023-03-11T11:16:21.336Z,1.12
2023-03-11T11:18:59.854Z,1.02
2023-03-11T11:21:52.684Z,1.02
2023-03-11T11:24:29.343Z,0.87
2023-03-11T11:27:22.285Z,0.85
2023-03-11T11:30:15.248Z,0.84
2023-03-11T11:32:42.948Z,0.88
2023-03-11T11:35:17.562Z,0.93
2023-03-11T11:37:52.962Z,0.90
2023-03-11T11:40:26.972Z,1.04
2023-03-11T11:42:54.442Z,1.03
2023-03-11T11:45:33.058Z,1.14
2023-03-11T11:48:05.033Z,1.07
2023-03-11T11:50:42.397Z,1.09
2023-03-11T11:53:28.579Z,1.15
2023-03-11T11:55:58.928Z,1.29
2023-03-11T11:58:26.317Z,1.44
2023-03-11T12:01:12.024Z,1.38
2023-03-11T12:04:15.283Z,1.31
2023-03-11T12:07:26.991Z,1.20
2023-03-11T12:10:24.373Z,1.07
2023-03-11T12:13:29.661Z,0.72
2023-03-11T12:16:25.917Z,0.65
2023-03-11T12:19:10.900Z,0.57
2023-03-11T12:22:03.470Z,0.54
2023-03-11T12:25:22.346Z,0.44
2023-03-11T12:28:17.356Z,0.52
2023-03-11T12:31:00.840Z,0.69
2023-03-11T12:33:59.219Z,0.91
2023-03-11T12:36:36.753Z,1.01
2023-03-11T12:39:07.392Z,0.88
2023-03-11T12:41:41.506Z,1.01
2023-03-11T12:44:31.066Z,0.94
2023-03-11T12:47:16.864Z,0.93
2023-03-11T12:49:55.077Z,0.91
2023-03-11T12:52:29.967Z,0.97
2023-03-11T12:54:57.230Z,0.98
2023-03-11T12:57:47.824Z,1.10
2023-03-11T13:00:53.841Z,1.29
2023-03-11T13:03:46.175Z,1.31
2023-03-11T13:06:42.550Z,1.45
2023-03-11T13:09:18.447Z,1.57
2023-03-11T13:11:48.333Z,1.64
2023-03-11T13:14:21.109Z,1.65
2023-03-11T13:16:49.790Z,1.71
2023-03-11T13:19:32.391Z,1.72
2023-03-11T13:22:02.077Z,1.83
2023-03-11T13:24:32.572Z,1.82
2023-03-11T13:27:00.069Z,1.70
2023-03-11T13:29:48.075Z,1.55
2023-03-11T13:32:52.779Z,1.47
2023-03-11T13:35:46.630Z,1.68
2023-03-11T13:38:51.133Z,1.84
2023-03-11T13:41:25.476Z,2.00
2023-03-11T13:43:58.227Z,2.08
2023-03-11T13:46:35.977Z,2.09
2023-03-11T13:49:21.816Z,2.07
2023-03-11T13:51:51.342Z,2.08
2023-03-11T13:54:28.392Z,2.05
2023-03-11T13:57:01.599Z,2.04
2023-03-11T13:59:35.465Z,2.06
2023-03-11T14:02:14.047Z,2.07
2023-03-11T14:04:49.491Z,2.04
2023-03-11T14:07:23.097Z,2.01
2023-03-11T14:09:50.944Z,1.95
2023-03-11T14:12:19.932Z,1.81
2023-03-11T14:14:55.218Z,1.59
2023-03-11T14:17:22.648Z,1.14
2023-03-11T14:20:12.232Z,1.03
2023-03-11T14:22:39.867Z,0.82
2023-03-11T14:25:10.574Z,0.90
2023-03-11T14:27:49.006Z,1.44
2023-03-11T14:30:26.060Z,1.90
2023-03-11T14:33:22.154Z,2.21
2023-03-11T14:36:14.445Z,2.25
2023-03-11T14:38:44.735Z,2.04
2023-03-11T14:41:15.910Z,1.83
2023-03-11T14:43:48.560Z,1.71
2023-03-11T14:46:23.375Z,1.50
2023-03-11T14:48:52.388Z,1.47
2023-03-11T14:51:30.236Z,1.40
2023-03-11T14:54:31.313Z,1.44
2023-03-11T14:57:25.402Z,1.25
2023-03-11T14:59:54.750Z,1.29
2023-03-11T15:02:37.234Z,1.30
2023-03-11T15:05:17.259Z,1.31
2023-03-11T15:07:47.075Z,1.23
2023-03-11T15:10:15.126Z,1.38
2023-03-11T15:12:45.764Z,1.56
2023-03-11T15:15:28.424Z,1.90
2023-03-11T15:18:02.466Z,1.48
2023-03-11T15:20:36.012Z,1.31
2023-03-11T15:23:07.963Z,1.17
2023-03-11T15:25:39.471Z,1.21
2023-03-11T15:28:28.779Z,1.12
2023-03-11T15:31:37.904Z,1.14
2023-03-11T15:34:32.043Z,1.06
2023-03-11T15:37:21.185Z,1.03
2023-03-11T15:39:52.415Z,1.05
2023-03-11T15:42:25.257Z,0.99
2023-03-11T15:44:53.345Z,0.91
2023-03-11T15:47:24.005Z,0.92
2023-03-11T15:49:52.161Z,0.90
2023-03-11T15:52:22.499Z,0.89
2023-03-11T15:54:55.721Z,0.91
2023-03-11T15:57:29.090Z,0.89
2023-03-11T15:59:59.091Z,0.95
2023-03-11T16:02:31.345Z,0.93
2023-03-11T16:05:00.478Z,0.88
2023-03-11T16:07:39.105Z,0.85
2023-03-11T16:10:09.313Z,0.89
2023-03-11T16:12:38.088Z,0.85
2023-03-11T16:15:06.840Z,0.93
2023-03-11T16:17:48.964Z,0.95
2023-03-11T16:20:21.375Z,0.93
2023-03-11T16:22:51.390Z,0.95
2023-03-11T16:25:27.401Z,0.91
2023-03-11T16:27:57.613Z,0.84
2023-03-11T16:30:26.719Z,0.86
2023-03-11T16:32:54.556Z,0.88
2023-03-11T16:35:22.352Z,0.88
2023-03-11T16:37:50.350Z,0.90
2023-03-11T16:40:21.141Z,0.92
2023-03-11T16:43:06.621Z,0.92
2023-03-11T16:45:35.105Z,0.89
2023-03-11T16:48:03.921Z,0.89
2023-03-11T16:50:34.358Z,0.85
2023-03-11T16:53:03.736Z,0.84
2023-03-11T16:55:32.060Z,0.90
2023-03-11T16:57:59.525Z,0.85
2023-03-11T17:00:27.568Z,0.83
2023-03-11T17:02:55.854Z,0.88
2023-03-11T17:05:24.011Z,0.87
2023-03-11T17:08:01.116Z,0.86
2023-03-11T17:10:29.190Z,0.85
2023-03-11T17:12:57.269Z,0.84
2023-03-11T17:15:25.341Z,0.96
2023-03-11T17:17:54.460Z,0.93
2023-03-11T17:20:22.794Z,0.92
2023-03-11T17:22:53.096Z,0.93
2023-03-11T17:25:21.401Z,0.93
2023-03-11T17:27:51.222Z,0.93
2023-03-11T17:30:35.522Z,0.91
2023-03-11T17:33:11.041Z,0.85
2023-03-11T17:35:42.034Z,0.71
2023-03-11T17:38:10.266Z,0.68
2023-03-11T17:40:52.026Z,0.47
2023-03-11T17:43:22.315Z,0.32
2023-03-11T17:45:50.888Z,0.29
2023-03-11T17:48:19.193Z,0.35
2023-03-11T17:50:50.832Z,0.28
2023-03-11T17:53:20.176Z,0.28
2023-03-11T17:55:50.327Z,0.34
2023-03-11T17:58:18.927Z,0.28
2023-03-11T18:00:47.033Z,0.35
2023-03-11T18:03:14.925Z,0.27
2023-03-11T18:05:43.372Z,0.25
2023-03-11T18:08:11.738Z,0.29
2023-03-11T18:10:41.583Z,0.26
2023-03-11T18:13:10.121Z,0.38
2023-03-11T18:15:37.781Z,0.46
2023-03-11T18:18:06.215Z,0.48
2023-03-11T18:20:34.646Z,0.53
2023-03-11T18:23:02.853Z,0.72
2023-03-11T18:25:32.464Z,0.76
2023-03-11T18:28:04.504Z,0.90
2023-03-11T18:30:32.578Z,0.76
2023-03-11T18:33:00.656Z,0.83
2023-03-11T18:35:34.382Z,0.79
2023-03-11T18:38:03.930Z,0.80
2023-03-11T18:40:32.294Z,0.80
2023-03-11T18:43:00.289Z,0.79
2023-03-11T18:45:28.585Z,0.60
2023-03-11T18:47:56.485Z,0.73
2023-03-11T18:50:26.685Z,0.49
2023-03-11T18:52:55.381Z,0.41
2023-03-11T18:55:25.443Z,0.32
2023-03-11T18:57:56.107Z,0.28
2023-03-11T19:00:26.499Z,0.26
2023-03-11T19:02:55.045Z,0.46
2023-03-11T19:05:24.464Z,0.49
2023-03-11T19:07:52.750Z,0.40
2023-03-11T19:10:21.143Z,0.62
2023-03-11T19:12:48.702Z,0.42
2023-03-11T19:15:18.757Z,0.57
2023-03-11T19:17:57.433Z,0.56
2023-03-11T19:20:32.763Z,0.55
2023-03-11T19:23:03.142Z,0.44
2023-03-11T19:25:31.196Z,0.33
2023-03-11T19:27:59.558Z,0.34
2023-03-11T19:30:27.769Z,0.53
2023-03-11T19:32:55.916Z,0.43
2023-03-11T19:35:24.453Z,0.42
2023-03-11T19:37:57.166Z,0.42
2023-03-11T19:40:30.915Z,0.38
2023-03-11T19:42:59.792Z,0.30
2023-03-11T19:45:32.529Z,0.31
2023-03-11T19:48:03.626Z,0.37
2023-03-11T19:50:34.877Z,0.27
2023-03-11T19:53:12.473Z,0.46
2023-03-11T19:55:44.674Z,0.36
2023-03-11T19:58:12.646Z,0.37
2023-03-11T20:00:44.839Z,0.38
2023-03-11T20:03:13.690Z,0.34
2023-03-11T20:05:43.970Z,0.25
2023-03-11T20:08:16.632Z,0.26
2023-03-11T20:10:50.081Z,0.25
2023-03-11T20:13:23.956Z,0.19
2023-03-11T20:15:52.743Z,0.16
2023-03-11T20:18:21.061Z,0.12
2023-03-11T20:20:49.228Z,0.07
2023-03-11T20:23:17.520Z,0.08
2023-03-11T20:25:46.555Z,0.04
2023-03-11T20:28:16.097Z,-0.03
2023-03-11T20:30:47.063Z,-0.06
2023-03-11T20:33:15.106Z,-0.03
2023-03-11T20:35:43.560Z,-0.11
2023-03-11T20:38:13.650Z,-0.16
2023-03-11T20:40:42.429Z,-0.18
2023-03-11T20:43:10.412Z,-0.15
2023-03-11T20:45:45.917Z,-0.19
2023-03-11T20:48:14.935Z,-0.19
2023-03-11T20:50:45.426Z,-0.22
2023-03-11T20:53:13.458Z,-0.29
2023-03-11T20:55:42.297Z,-0.25
2023-03-11T20:58:12.173Z,-0.27
2023-03-11T21:00:40.140Z,-0.36
2023-03-11T21:03:07.476Z,-0.29
2023-03-11T21:05:38.977Z,-0.39
2023-03-11T21:08:07.783Z,-0.32
2023-03-11T21:10:41.776Z,-0.36
2023-03-11T21:13:11.146Z,-0.43
2023-03-11T21:15:42.451Z,-0.35
2023-03-11T21:18:10.953Z,-0.36
2023-03-11T21:20:40.748Z,-0.41
2023-03-11T21:23:09.916Z,-0.40
2023-03-11T21:25:43.279Z,-0.39
2023-03-11T21:28:17.271Z,-0.49
2023-03-11T21:30:45.756Z,-0.43
2023-03-11T21:33:14.671Z,-0.46
2023-03-11T21:35:44.905Z,-0.51
2023-03-11T21:38:12.831Z,-0.56
2023-03-11T21:40:42.694Z,-0.59
2023-03-11T21:43:10.318Z,-0.55
2023-03-11T21:45:39.924Z,-0.57
2023-03-11T21:48:14.495Z,-0.57
2023-03-11T21:50:45.870Z,-0.62
2023-03-11T21:53:13.410Z,-0.57
2023-03-11T21:55:43.609Z,-0.58
2023-03-11T21:58:13.233Z,-0.61
2023-03-11T22:00:40.933Z,-0.65
2023-03-11T22:03:08.105Z,-0.66
2023-03-11T22:05:38.477Z,-0.75
2023-03-11T22:08:06.066Z,-0.69
2023-03-11T22:10:33.736Z,-0.69
2023-03-11T22:13:01.434Z,-0.78
2023-03-11T22:15:34.775Z,-0.79
2023-03-11T22:18:01.958Z,-0.73
2023-03-11T22:20:29.241Z,-0.79
2023-03-11T22:22:56.550Z,-0.82
2023-03-11T22:25:24.022Z,-0.82
2023-03-11T22:27:51.544Z,-0.92
2023-03-11T22:30:18.962Z,-0.91
2023-03-11T22:32:46.388Z,-0.84
2023-03-11T22:35:13.985Z,-0.93
2023-03-11T22:37:41.470Z,-0.91
2023-03-11T22:40:10.255Z,-0.86
2023-03-11T22:42:38.287Z,-1.03
2023-03-11T22:45:07.590Z,-0.91
2023-03-11T22:47:36.802Z,-0.91
2023-03-11T22:50:04.903Z,-0.94
2023-03-11T22:52:32.198Z,-0.91
2023-03-11T22:54:59.718Z,-1.06
2023-03-11T22:57:39.082Z,-0.96
2023-03-11T23:00:17.488Z,-1.09
2023-03-11T23:02:46.123Z,-1.07
2023-03-11T23:05:15.757Z,-1.13
2023-03-11T23:07:43.064Z,-1.26
2023-03-11T23:10:13.361Z,-1.12
2023-03-11T23:12:48.014Z,-1.11
2023-03-11T23:15:18.517Z,-1.13
2023-03-11T23:17:46.075Z,-1.11
2023-03-11T23:20:16.742Z,-1.13
2023-03-11T23:22:44.353Z,-1.18
2023-03-11T23:25:18.220Z,-1.29
2023-03-11T23:27:46.686Z,-1.38
2023-03-11T23:30:17.445Z,-1.49
2023-03-11T23:32:45.943Z,-1.58
2023-03-11T23:35:14.277Z,-1.61
2023-03-11T23:37:41.765Z,-1.57
2023-03-11T23:40:10.167Z,-1.62
2023-03-11T23:42:37.628Z,-1.75
2023-03-11T23:45:05.503Z,-1.53
2023-03-11T23:47:33.331Z,-1.51
2023-03-11T23:50:00.573Z,-1.55
2023-03-11T23:52:28.322Z,-1.76
2023-03-11T23:54:56.026Z,-1.85
2023-03-11T23:57:24.408Z,-1.67
2023-03-11T23:59:51.956Z,-1.73
